sensor_id;sensor_type;location;lat;lon;timestamp;P1;P2;P0
51258;PMS7003;37327;54.254;18.504;2022-11-30T00:01:48;22;19;15
51258;PMS7003;37327;54.254;18.504;2022-11-30T00:05:21;20;17;13
51258;PMS7003;37327;54.254;18.504;2022-11-30T00:08:28;26;18;14
51258;PMS7003;37327;54.254;18.504;2022-11-30T00:11:35;19;15;13
51258;PMS7003;37327;54.254;18.504;2022-11-30T00:14:42;18;17;12
51258;PMS7003;37327;54.254;18.504;2022-11-30T00:17:49;23;21;14
51258;PMS7003;37327;54.254;18.504;2022-11-30T00:21:05;23;16;13
51258;PMS7003;37327;54.254;18.504;2022-11-30T00:24:39;18;15;11
51258;PMS7003;37327;54.254;18.504;2022-11-30T00:27:45;26;21;15
51258;PMS7003;37327;54.254;18.504;2022-11-30T00:31:00;22;18;12
51258;PMS7003;37327;54.254;18.504;2022-11-30T00:34:08;24;20;15
51258;PMS7003;37327;54.254;18.504;2022-11-30T00:37:15;18;16;13
51258;PMS7003;37327;54.254;18.504;2022-11-30T00:40:22;18;16;11
51258;PMS7003;37327;54.254;18.504;2022-11-30T00:43:55;19;18;12
51258;PMS7003;37327;54.254;18.504;2022-11-30T00:47:01;19;15;13
51258;PMS7003;37327;54.254;18.504;2022-11-30T00:50:09;19;17;11
51258;PMS7003;37327;54.254;18.504;2022-11-30T00:53:17;17;17;12
51258;PMS7003;37327;54.254;18.504;2022-11-30T00:56:25;20;18;14
51258;PMS7003;37327;54.254;18.504;2022-11-30T00:59:34;18;14;11
51258;PMS7003;37327;54.254;18.504;2022-11-30T01:03:07;22;17;14
51258;PMS7003;37327;54.254;18.504;2022-11-30T01:06:15;21;17;13
51258;PMS7003;37327;54.254;18.504;2022-11-30T01:09:22;10;10;9
51258;PMS7003;37327;54.254;18.504;2022-11-30T01:12:29;19;19;13
51258;PMS7003;37327;54.254;18.504;2022-11-30T01:15:37;20;19;13
51258;PMS7003;37327;54.254;18.504;2022-11-30T01:18:46;17;15;11
51258;PMS7003;37327;54.254;18.504;2022-11-30T01:22:19;19;17;11
51258;PMS7003;37327;54.254;18.504;2022-11-30T01:25:25;13;11;9
51258;PMS7003;37327;54.254;18.504;2022-11-30T01:28:33;18;16;12
51258;PMS7003;37327;54.254;18.504;2022-11-30T01:31:41;19;16;12
51258;PMS7003;37327;54.254;18.504;2022-11-30T01:34:49;23;20;15
51258;PMS7003;37327;54.254;18.504;2022-11-30T01:37:57;20;16;13
51258;PMS7003;37327;54.254;18.504;2022-11-30T01:41:30;24;19;13
51258;PMS7003;37327;54.254;18.504;2022-11-30T01:47:55;29;19;14
51258;PMS7003;37327;54.254;18.504;2022-11-30T01:51:03;21;19;12
51258;PMS7003;37327;54.254;18.504;2022-11-30T01:54:13;18;17;13
51258;PMS7003;37327;54.254;18.504;2022-11-30T01:57:50;21;19;14
51258;PMS7003;37327;54.254;18.504;2022-11-30T02:01:03;25;21;14
51258;PMS7003;37327;54.254;18.504;2022-11-30T02:04:21;22;19;14
51258;PMS7003;37327;54.254;18.504;2022-11-30T02:07:25;17;17;13
51258;PMS7003;37327;54.254;18.504;2022-11-30T02:10:34;17;15;11
51258;PMS7003;37327;54.254;18.504;2022-11-30T02:24:35;18;16;12
51258;PMS7003;37327;54.254;18.504;2022-11-30T02:31:14;19;17;13
51258;PMS7003;37327;54.254;18.504;2022-11-30T02:34:54;21;18;12
51258;PMS7003;37327;54.254;18.504;2022-11-30T02:38:04;21;17;13
51258;PMS7003;37327;54.254;18.504;2022-11-30T02:41:11;17;16;12
51258;PMS7003;37327;54.254;18.504;2022-11-30T02:44:18;18;16;12
51258;PMS7003;37327;54.254;18.504;2022-11-30T02:47:33;15;13;10
51258;PMS7003;37327;54.254;18.504;2022-11-30T02:51:12;22;16;12
51258;PMS7003;37327;54.254;18.504;2022-11-30T02:54:25;24;16;10
51258;PMS7003;37327;54.254;18.504;2022-11-30T02:57:32;15;14;11
51258;PMS7003;37327;54.254;18.504;2022-11-30T03:00:40;19;17;13
51258;PMS7003;37327;54.254;18.504;2022-11-30T03:03:47;13;13;8
51258;PMS7003;37327;54.254;18.504;2022-11-30T03:06:54;17;15;11
51258;PMS7003;37327;54.254;18.504;2022-11-30T03:10:26;19;14;11
51258;PMS7003;37327;54.254;18.504;2022-11-30T03:13:33;17;16;11
51258;PMS7003;37327;54.254;18.504;2022-11-30T03:16:40;12;9;4
51258;PMS7003;37327;54.254;18.504;2022-11-30T03:19:49;15;14;10
51258;PMS7003;37327;54.254;18.504;2022-11-30T03:22:59;12;12;9
51258;PMS7003;37327;54.254;18.504;2022-11-30T03:26:07;16;14;12
51258;PMS7003;37327;54.254;18.504;2022-11-30T03:29:39;16;15;11
51258;PMS7003;37327;54.254;18.504;2022-11-30T03:32:49;17;16;12
51258;PMS7003;37327;54.254;18.504;2022-11-30T03:36:03;12;11;9
51258;PMS7003;37327;54.254;18.504;2022-11-30T03:39:12;14;13;11
51258;PMS7003;37327;54.254;18.504;2022-11-30T03:42:21;20;18;13
51258;PMS7003;37327;54.254;18.504;2022-11-30T03:45:53;16;16;12
51258;PMS7003;37327;54.254;18.504;2022-11-30T03:49:00;18;17;11
51258;PMS7003;37327;54.254;18.504;2022-11-30T03:52:07;17;16;13
51258;PMS7003;37327;54.254;18.504;2022-11-30T03:55:16;21;18;12
51258;PMS7003;37327;54.254;18.504;2022-11-30T03:58:23;22;17;12
51258;PMS7003;37327;54.254;18.504;2022-11-30T04:01:31;18;16;13
51258;PMS7003;37327;54.254;18.504;2022-11-30T04:05:04;20;15;12
51258;PMS7003;37327;54.254;18.504;2022-11-30T04:08:12;18;16;13
51258;PMS7003;37327;54.254;18.504;2022-11-30T04:11:20;18;15;11
51258;PMS7003;37327;54.254;18.504;2022-11-30T04:14:27;20;19;15
51258;PMS7003;37327;54.254;18.504;2022-11-30T04:17:34;23;17;11
51258;PMS7003;37327;54.254;18.504;2022-11-30T04:20:41;16;14;10
51258;PMS7003;37327;54.254;18.504;2022-11-30T04:24:14;18;15;11
51258;PMS7003;37327;54.254;18.504;2022-11-30T04:27:22;19;18;14
51258;PMS7003;37327;54.254;18.504;2022-11-30T04:30:29;20;15;11
51258;PMS7003;37327;54.254;18.504;2022-11-30T04:33:38;18;14;11
51258;PMS7003;37327;54.254;18.504;2022-11-30T04:36:46;23;18;12
51258;PMS7003;37327;54.254;18.504;2022-11-30T04:39:53;17;15;11
51258;PMS7003;37327;54.254;18.504;2022-11-30T04:43:26;18;16;11
51258;PMS7003;37327;54.254;18.504;2022-11-30T04:46:33;9;6;5
51258;PMS7003;37327;54.254;18.504;2022-11-30T04:49:41;16;13;11
51258;PMS7003;37327;54.254;18.504;2022-11-30T04:52:48;23;19;13
51258;PMS7003;37327;54.254;18.504;2022-11-30T04:55:54;15;14;11
51258;PMS7003;37327;54.254;18.504;2022-11-30T04:59:01;16;14;9
51258;PMS7003;37327;54.254;18.504;2022-11-30T05:02:08;18;16;10
51258;PMS7003;37327;54.254;18.504;2022-11-30T05:05:41;18;16;12
51258;PMS7003;37327;54.254;18.504;2022-11-30T05:08:48;19;18;15
51258;PMS7003;37327;54.254;18.504;2022-11-30T05:11:54;18;14;12
51258;PMS7003;37327;54.254;18.504;2022-11-30T05:15:01;17;14;11
51258;PMS7003;37327;54.254;18.504;2022-11-30T05:18:09;18;14;10
51258;PMS7003;37327;54.254;18.504;2022-11-30T05:21:16;14;13;11
51258;PMS7003;37327;54.254;18.504;2022-11-30T05:24:51;17;13;10
51258;PMS7003;37327;54.254;18.504;2022-11-30T05:27:59;20;16;9
51258;PMS7003;37327;54.254;18.504;2022-11-30T05:31:06;17;13;9
51258;PMS7003;37327;54.254;18.504;2022-11-30T05:34:13;17;15;12
51258;PMS7003;37327;54.254;18.504;2022-11-30T05:37:21;16;13;10
51258;PMS7003;37327;54.254;18.504;2022-11-30T05:40:28;15;13;10
51258;PMS7003;37327;54.254;18.504;2022-11-30T05:44:04;16;13;10
51258;PMS7003;37327;54.254;18.504;2022-11-30T05:47:11;17;15;11
51258;PMS7003;37327;54.254;18.504;2022-11-30T05:50:18;8;5;2
51258;PMS7003;37327;54.254;18.504;2022-11-30T05:53:26;19;15;12
51258;PMS7003;37327;54.254;18.504;2022-11-30T05:56:32;16;16;11
51258;PMS7003;37327;54.254;18.504;2022-11-30T05:59:39;15;14;10
51258;PMS7003;37327;54.254;18.504;2022-11-30T06:03:15;16;16;12
51258;PMS7003;37327;54.254;18.504;2022-11-30T06:06:22;15;11;10
51258;PMS7003;37327;54.254;18.504;2022-11-30T06:09:30;17;14;10
51258;PMS7003;37327;54.254;18.504;2022-11-30T06:12:37;18;15;10
51258;PMS7003;37327;54.254;18.504;2022-11-30T06:15:44;17;14;9
51258;PMS7003;37327;54.254;18.504;2022-11-30T06:18:51;16;16;11
51258;PMS7003;37327;54.254;18.504;2022-11-30T06:22:24;15;14;12
51258;PMS7003;37327;54.254;18.504;2022-11-30T06:25:32;22;14;12
51258;PMS7003;37327;54.254;18.504;2022-11-30T06:28:39;22;18;13
51258;PMS7003;37327;54.254;18.504;2022-11-30T06:31:46;18;16;11
51258;PMS7003;37327;54.254;18.504;2022-11-30T06:34:53;11;9;6
51258;PMS7003;37327;54.254;18.504;2022-11-30T06:38:01;16;14;10
51258;PMS7003;37327;54.254;18.504;2022-11-30T06:41:35;18;16;12
51258;PMS7003;37327;54.254;18.504;2022-11-30T06:44:42;17;13;10
51258;PMS7003;37327;54.254;18.504;2022-11-30T06:47:49;16;13;10
51258;PMS7003;37327;54.254;18.504;2022-11-30T06:51:10;22;15;12
51258;PMS7003;37327;54.254;18.504;2022-11-30T06:54:14;18;15;11
51258;PMS7003;37327;54.254;18.504;2022-11-30T06:57:49;18;15;11
51258;PMS7003;37327;54.254;18.504;2022-11-30T07:00:56;15;14;10
51258;PMS7003;37327;54.254;18.504;2022-11-30T07:04:04;18;14;11
51258;PMS7003;37327;54.254;18.504;2022-11-30T07:07:11;17;16;12
51258;PMS7003;37327;54.254;18.504;2022-11-30T07:10:20;17;14;9
51258;PMS7003;37327;54.254;18.504;2022-11-30T07:13:27;14;13;11
51258;PMS7003;37327;54.254;18.504;2022-11-30T07:17:00;16;14;11
51258;PMS7003;37327;54.254;18.504;2022-11-30T07:20:11;8;6;5
51258;PMS7003;37327;54.254;18.504;2022-11-30T07:23:19;17;13;8
51258;PMS7003;37327;54.254;18.504;2022-11-30T07:26:37;18;17;12
51258;PMS7003;37327;54.254;18.504;2022-11-30T07:29:44;14;9;7
51258;PMS7003;37327;54.254;18.504;2022-11-30T07:33:21;21;17;12
51258;PMS7003;37327;54.254;18.504;2022-11-30T07:36:28;25;16;12
51258;PMS7003;37327;54.254;18.504;2022-11-30T07:39:36;13;13;10
51258;PMS7003;37327;54.254;18.504;2022-11-30T07:42:43;16;13;11
51258;PMS7003;37327;54.254;18.504;2022-11-30T07:45:51;15;13;11
51258;PMS7003;37327;54.254;18.504;2022-11-30T07:48:59;16;16;13
51258;PMS7003;37327;54.254;18.504;2022-11-30T07:52:32;15;14;12
51258;PMS7003;37327;54.254;18.504;2022-11-30T07:55:41;16;12;10
51258;PMS7003;37327;54.254;18.504;2022-11-30T07:58:49;21;15;12
51258;PMS7003;37327;54.254;18.504;2022-11-30T08:01:58;15;13;11
51258;PMS7003;37327;54.254;18.504;2022-11-30T08:05:05;20;16;12
51258;PMS7003;37327;54.254;18.504;2022-11-30T08:08:46;18;16;13
51258;PMS7003;37327;54.254;18.504;2022-11-30T08:11:55;19;15;12
51258;PMS7003;37327;54.254;18.504;2022-11-30T08:15:02;15;13;10
51258;PMS7003;37327;54.254;18.504;2022-11-30T08:18:09;12;10;9
51258;PMS7003;37327;54.254;18.504;2022-11-30T08:21:17;21;16;11
51258;PMS7003;37327;54.254;18.504;2022-11-30T08:24:27;23;17;12
51258;PMS7003;37327;54.254;18.504;2022-11-30T08:28:00;23;19;15
51258;PMS7003;37327;54.254;18.504;2022-11-30T08:31:08;19;16;12
51258;PMS7003;37327;54.254;18.504;2022-11-30T08:34:20;12;10;8
51258;PMS7003;37327;54.254;18.504;2022-11-30T08:37:29;12;11;7
51258;PMS7003;37327;54.254;18.504;2022-11-30T08:40:35;18;15;11
51258;PMS7003;37327;54.254;18.504;2022-11-30T08:43:42;18;14;10
51258;PMS7003;37327;54.254;18.504;2022-11-30T08:47:14;21;17;11
51258;PMS7003;37327;54.254;18.504;2022-11-30T08:50:22;19;15;11
51258;PMS7003;37327;54.254;18.504;2022-11-30T08:53:30;19;16;12
51258;PMS7003;37327;54.254;18.504;2022-11-30T08:56:39;16;13;10
51258;PMS7003;37327;54.254;18.504;2022-11-30T08:59:48;17;14;10
51258;PMS7003;37327;54.254;18.504;2022-11-30T09:02:55;16;12;10
51258;PMS7003;37327;54.254;18.504;2022-11-30T09:06:28;18;16;11
51258;PMS7003;37327;54.254;18.504;2022-11-30T09:09:36;18;13;9
51258;PMS7003;37327;54.254;18.504;2022-11-30T09:12:43;18;15;11
51258;PMS7003;37327;54.254;18.504;2022-11-30T09:19:02;18;16;12
51258;PMS7003;37327;54.254;18.504;2022-11-30T09:22:10;23;17;13
51258;PMS7003;37327;54.254;18.504;2022-11-30T09:25:43;15;11;8
51258;PMS7003;37327;54.254;18.504;2022-11-30T09:28:50;17;15;12
51258;PMS7003;37327;54.254;18.504;2022-11-30T09:31:57;18;16;12
51258;PMS7003;37327;54.254;18.504;2022-11-30T09:35:07;23;19;13
51258;PMS7003;37327;54.254;18.504;2022-11-30T09:38:14;22;17;13
51258;PMS7003;37327;54.254;18.504;2022-11-30T09:51:44;19;17;13
51258;PMS7003;37327;54.254;18.504;2022-11-30T09:55:25;21;19;14
51258;PMS7003;37327;54.254;18.504;2022-11-30T09:58:47;25;20;15
51258;PMS7003;37327;54.254;18.504;2022-11-30T10:02:11;17;13;12
51258;PMS7003;37327;54.254;18.504;2022-11-30T10:11:46;25;20;15
51258;PMS7003;37327;54.254;18.504;2022-11-30T10:18:24;22;20;14
51258;PMS7003;37327;54.254;18.504;2022-11-30T10:25:28;19;16;12
51258;PMS7003;37327;54.254;18.504;2022-11-30T10:28:48;18;16;12
51258;PMS7003;37327;54.254;18.504;2022-11-30T10:32:24;20;16;13
51258;PMS7003;37327;54.254;18.504;2022-11-30T10:35:40;18;17;12
51258;PMS7003;37327;54.254;18.504;2022-11-30T10:38:54;18;16;12
51258;PMS7003;37327;54.254;18.504;2022-11-30T10:45:49;14;14;10
51258;PMS7003;37327;54.254;18.504;2022-11-30T10:48:57;12;11;10
51258;PMS7003;37327;54.254;18.504;2022-11-30T10:52:13;23;20;14
51258;PMS7003;37327;54.254;18.504;2022-11-30T10:55:26;19;16;12
51258;PMS7003;37327;54.254;18.504;2022-11-30T11:05:43;20;15;11
51258;PMS7003;37327;54.254;18.504;2022-11-30T11:08:52;18;15;11
51258;PMS7003;37327;54.254;18.504;2022-11-30T11:12:24;20;17;12
51258;PMS7003;37327;54.254;18.504;2022-11-30T11:15:33;16;16;13
51258;PMS7003;37327;54.254;18.504;2022-11-30T11:22:03;21;17;12
51258;PMS7003;37327;54.254;18.504;2022-11-30T11:25:40;20;15;11
51258;PMS7003;37327;54.254;18.504;2022-11-30T11:28:48;23;20;14
51258;PMS7003;37327;54.254;18.504;2022-11-30T11:38:57;20;17;12
51258;PMS7003;37327;54.254;18.504;2022-11-30T11:42:10;16;13;7
51258;PMS7003;37327;54.254;18.504;2022-11-30T11:45:24;18;18;12
51258;PMS7003;37327;54.254;18.504;2022-11-30T11:48:35;22;19;14
51258;PMS7003;37327;54.254;18.504;2022-11-30T11:52:17;21;17;13
51258;PMS7003;37327;54.254;18.504;2022-11-30T11:55:27;18;16;13
51258;PMS7003;37327;54.254;18.504;2022-11-30T12:02:37;17;16;11
51258;PMS7003;37327;54.254;18.504;2022-11-30T12:05:44;21;16;13
51258;PMS7003;37327;54.254;18.504;2022-11-30T12:09:05;23;19;14
51258;PMS7003;37327;54.254;18.504;2022-11-30T12:12:19;25;19;15
51258;PMS7003;37327;54.254;18.504;2022-11-30T12:15:29;22;17;11
51258;PMS7003;37327;54.254;18.504;2022-11-30T14:48:19;20;15;11
51258;PMS7003;37327;54.254;18.504;2022-11-30T14:51:27;21;20;13
51258;PMS7003;37327;54.254;18.504;2022-11-30T15:01:38;28;25;20
51258;PMS7003;37327;54.254;18.504;2022-11-30T15:04:47;24;22;15
51258;PMS7003;37327;54.254;18.504;2022-11-30T15:07:56;31;28;19
51258;PMS7003;37327;54.254;18.504;2022-11-30T15:11:09;27;24;17
51258;PMS7003;37327;54.254;18.504;2022-11-30T15:14:19;26;23;17
51258;PMS7003;37327;54.254;18.504;2022-11-30T15:17:56;24;21;14
51258;PMS7003;37327;54.254;18.504;2022-11-30T15:21:13;25;22;16
51258;PMS7003;37327;54.254;18.504;2022-11-30T15:24:29;12;10;5
51258;PMS7003;37327;54.254;18.504;2022-11-30T15:27:36;27;23;15
51258;PMS7003;37327;54.254;18.504;2022-11-30T15:31:12;28;20;14
51258;PMS7003;37327;54.254;18.504;2022-11-30T15:37:38;28;17;12
51258;PMS7003;37327;54.254;18.504;2022-11-30T15:40:47;25;21;16
51258;PMS7003;37327;54.254;18.504;2022-11-30T15:43:57;22;21;13
51258;PMS7003;37327;54.254;18.504;2022-11-30T15:50:43;22;20;14
51258;PMS7003;37327;54.254;18.504;2022-11-30T15:53:50;19;15;10
51258;PMS7003;37327;54.254;18.504;2022-11-30T15:56:58;27;19;13
51258;PMS7003;37327;54.254;18.504;2022-11-30T16:00:06;19;17;12
51258;PMS7003;37327;54.254;18.504;2022-11-30T16:07:14;26;23;16
51258;PMS7003;37327;54.254;18.504;2022-11-30T16:10:40;19;18;13
51258;PMS7003;37327;54.254;18.504;2022-11-30T16:14:07;24;22;15
51258;PMS7003;37327;54.254;18.504;2022-11-30T16:17:20;26;22;16
51258;PMS7003;37327;54.254;18.504;2022-11-30T16:20:27;15;14;8
51258;PMS7003;37327;54.254;18.504;2022-11-30T16:23:34;32;19;14
51258;PMS7003;37327;54.254;18.504;2022-11-30T16:26:41;19;17;11
51258;PMS7003;37327;54.254;18.504;2022-11-30T16:29:49;26;23;16
51258;PMS7003;37327;54.254;18.504;2022-11-30T16:33:22;26;22;14
51258;PMS7003;37327;54.254;18.504;2022-11-30T16:36:31;23;22;14
51258;PMS7003;37327;54.254;18.504;2022-11-30T16:39:42;24;22;16
51258;PMS7003;37327;54.254;18.504;2022-11-30T16:42:49;26;22;16
51258;PMS7003;37327;54.254;18.504;2022-11-30T16:46:00;21;18;13
51258;PMS7003;37327;54.254;18.504;2022-11-30T16:49:35;27;21;16
51258;PMS7003;37327;54.254;18.504;2022-11-30T16:52:42;25;22;14
51258;PMS7003;37327;54.254;18.504;2022-11-30T16:55:49;29;25;15
51258;PMS7003;37327;54.254;18.504;2022-11-30T16:58:56;24;18;14
51258;PMS7003;37327;54.254;18.504;2022-11-30T17:02:07;20;18;14
51258;PMS7003;37327;54.254;18.504;2022-11-30T17:05:20;23;20;14
51258;PMS7003;37327;54.254;18.504;2022-11-30T17:08:55;28;20;15
51258;PMS7003;37327;54.254;18.504;2022-11-30T17:12:02;19;17;13
51258;PMS7003;37327;54.254;18.504;2022-11-30T17:15:12;23;18;13
51258;PMS7003;37327;54.254;18.504;2022-11-30T17:18:22;25;21;14
51258;PMS7003;37327;54.254;18.504;2022-11-30T17:21:30;20;19;15
51258;PMS7003;37327;54.254;18.504;2022-11-30T17:25:07;28;19;14
51258;PMS7003;37327;54.254;18.504;2022-11-30T17:28:19;23;19;14
51258;PMS7003;37327;54.254;18.504;2022-11-30T17:31:27;22;20;14
51258;PMS7003;37327;54.254;18.504;2022-11-30T17:34:34;30;24;17
51258;PMS7003;37327;54.254;18.504;2022-11-30T17:37:41;22;19;14
51258;PMS7003;37327;54.254;18.504;2022-11-30T17:40:48;21;16;11
51258;PMS7003;37327;54.254;18.504;2022-11-30T17:44:29;21;16;12
51258;PMS7003;37327;54.254;18.504;2022-11-30T17:47:36;26;21;15
51258;PMS7003;37327;54.254;18.504;2022-11-30T17:50:44;21;19;12
51258;PMS7003;37327;54.254;18.504;2022-11-30T17:53:58;23;17;11
51258;PMS7003;37327;54.254;18.504;2022-11-30T17:57:06;17;16;11
51258;PMS7003;37327;54.254;18.504;2022-11-30T18:00:42;16;13;8
51258;PMS7003;37327;54.254;18.504;2022-11-30T18:03:50;16;12;10
51258;PMS7003;37327;54.254;18.504;2022-11-30T18:06:59;13;11;8
51258;PMS7003;37327;54.254;18.504;2022-11-30T18:10:06;17;12;9
51258;PMS7003;37327;54.254;18.504;2022-11-30T18:13:14;12;10;7
51258;PMS7003;37327;54.254;18.504;2022-11-30T18:16:23;18;13;7
51258;PMS7003;37327;54.254;18.504;2022-11-30T18:19:56;17;12;9
51258;PMS7003;37327;54.254;18.504;2022-11-30T18:23:04;10;8;6
51258;PMS7003;37327;54.254;18.504;2022-11-30T18:26:12;15;12;9
51258;PMS7003;37327;54.254;18.504;2022-11-30T18:29:21;16;11;8
51258;PMS7003;37327;54.254;18.504;2022-11-30T18:32:28;13;12;9
51258;PMS7003;37327;54.254;18.504;2022-11-30T18:35:36;20;14;10
51258;PMS7003;37327;54.254;18.504;2022-11-30T18:39:09;16;11;9
51258;PMS7003;37327;54.254;18.504;2022-11-30T18:42:16;13;11;8
51258;PMS7003;37327;54.254;18.504;2022-11-30T18:45:25;12;9;8
51258;PMS7003;37327;54.254;18.504;2022-11-30T18:48:34;13;10;7
51258;PMS7003;37327;54.254;18.504;2022-11-30T18:51:42;15;12;8
51258;PMS7003;37327;54.254;18.504;2022-11-30T18:54:50;15;12;9
51258;PMS7003;37327;54.254;18.504;2022-11-30T18:58:23;16;11;8
51258;PMS7003;37327;54.254;18.504;2022-11-30T19:01:31;21;16;11
51258;PMS7003;37327;54.254;18.504;2022-11-30T19:04:41;12;12;9
51258;PMS7003;37327;54.254;18.504;2022-11-30T19:07:49;16;15;10
51258;PMS7003;37327;54.254;18.504;2022-11-30T19:14:38;14;10;6
51258;PMS7003;37327;54.254;18.504;2022-11-30T19:17:51;19;17;12
51258;PMS7003;37327;54.254;18.504;2022-11-30T19:21:05;14;13;9
51258;PMS7003;37327;54.254;18.504;2022-11-30T19:24:14;15;12;9
51258;PMS7003;37327;54.254;18.504;2022-11-30T19:27:23;18;17;12
51258;PMS7003;37327;54.254;18.504;2022-11-30T19:30:57;16;14;11
51258;PMS7003;37327;54.254;18.504;2022-11-30T19:34:05;15;12;10
51258;PMS7003;37327;54.254;18.504;2022-11-30T19:37:14;19;17;12
51258;PMS7003;37327;54.254;18.504;2022-11-30T19:40:21;22;18;12
51258;PMS7003;37327;54.254;18.504;2022-11-30T19:43:28;18;15;12
51258;PMS7003;37327;54.254;18.504;2022-11-30T19:46:35;21;18;12
51258;PMS7003;37327;54.254;18.504;2022-11-30T19:50:12;17;14;11
51258;PMS7003;37327;54.254;18.504;2022-11-30T19:53:19;20;19;14
51258;PMS7003;37327;54.254;18.504;2022-11-30T19:56:29;19;16;12
51258;PMS7003;37327;54.254;18.504;2022-11-30T19:59:39;17;15;12
51258;PMS7003;37327;54.254;18.504;2022-11-30T20:02:46;20;18;13
51258;PMS7003;37327;54.254;18.504;2022-11-30T20:05:56;23;19;12
51258;PMS7003;37327;54.254;18.504;2022-11-30T20:09:29;17;17;13
51258;PMS7003;37327;54.254;18.504;2022-11-30T20:12:36;23;17;14
51258;PMS7003;37327;54.254;18.504;2022-11-30T20:15:44;21;15;11
51258;PMS7003;37327;54.254;18.504;2022-11-30T20:18:55;19;14;9
51258;PMS7003;37327;54.254;18.504;2022-11-30T20:22:05;18;17;13
51258;PMS7003;37327;54.254;18.504;2022-11-30T20:25:42;22;19;14
51258;PMS7003;37327;54.254;18.504;2022-11-30T20:28:50;16;15;12
51258;PMS7003;37327;54.254;18.504;2022-11-30T20:32:00;18;15;10
51258;PMS7003;37327;54.254;18.504;2022-11-30T20:35:08;18;16;11
51258;PMS7003;37327;54.254;18.504;2022-11-30T20:38:16;20;17;14
51258;PMS7003;37327;54.254;18.504;2022-11-30T20:41:23;23;22;15
51258;PMS7003;37327;54.254;18.504;2022-11-30T20:44:57;34;23;17
51258;PMS7003;37327;54.254;18.504;2022-11-30T20:48:05;26;24;17
51258;PMS7003;37327;54.254;18.504;2022-11-30T20:51:15;27;23;15
51258;PMS7003;37327;54.254;18.504;2022-11-30T20:54:24;26;25;18
51258;PMS7003;37327;54.254;18.504;2022-11-30T20:57:35;29;26;16
51258;PMS7003;37327;54.254;18.504;2022-11-30T21:01:11;27;23;16
51258;PMS7003;37327;54.254;18.504;2022-11-30T21:04:24;26;23;18
51258;PMS7003;37327;54.254;18.504;2022-11-30T21:07:32;24;20;14
51258;PMS7003;37327;54.254;18.504;2022-11-30T21:10:39;16;16;10
51258;PMS7003;37327;54.254;18.504;2022-11-30T21:13:47;27;22;15
51258;PMS7003;37327;54.254;18.504;2022-11-30T21:16:55;30;24;16
51258;PMS7003;37327;54.254;18.504;2022-11-30T21:20:28;24;21;12
51258;PMS7003;37327;54.254;18.504;2022-11-30T21:23:34;18;15;10
51258;PMS7003;37327;54.254;18.504;2022-11-30T21:26:43;17;17;14
51258;PMS7003;37327;54.254;18.504;2022-11-30T21:29:51;18;18;14
51258;PMS7003;37327;54.254;18.504;2022-11-30T21:32:58;20;17;13
51258;PMS7003;37327;54.254;18.504;2022-11-30T21:36:06;17;14;11
51258;PMS7003;37327;54.254;18.504;2022-11-30T21:39:42;18;16;13
51258;PMS7003;37327;54.254;18.504;2022-11-30T21:42:50;19;17;13
51258;PMS7003;37327;54.254;18.504;2022-11-30T21:46:00;23;20;15
51258;PMS7003;37327;54.254;18.504;2022-11-30T21:49:13;23;21;15
51258;PMS7003;37327;54.254;18.504;2022-11-30T21:52:21;24;21;15
51258;PMS7003;37327;54.254;18.504;2022-11-30T21:56:00;23;19;13
51258;PMS7003;37327;54.254;18.504;2022-11-30T21:59:09;25;21;14
51258;PMS7003;37327;54.254;18.504;2022-11-30T22:02:18;26;18;13
51258;PMS7003;37327;54.254;18.504;2022-11-30T22:05:25;22;18;13
51258;PMS7003;37327;54.254;18.504;2022-11-30T22:08:32;24;22;15
51258;PMS7003;37327;54.254;18.504;2022-11-30T22:11:40;22;17;12
51258;PMS7003;37327;54.254;18.504;2022-11-30T22:15:15;24;22;16
51258;PMS7003;37327;54.254;18.504;2022-11-30T22:18:23;27;22;13
51258;PMS7003;37327;54.254;18.504;2022-11-30T22:21:34;29;24;16
51258;PMS7003;37327;54.254;18.504;2022-11-30T22:24:41;25;24;18
51258;PMS7003;37327;54.254;18.504;2022-11-30T22:27:48;30;27;17
51258;PMS7003;37327;54.254;18.504;2022-11-30T22:30:55;21;19;12
51258;PMS7003;37327;54.254;18.504;2022-11-30T22:34:32;17;15;10
51258;PMS7003;37327;54.254;18.504;2022-11-30T22:37:39;20;16;14
51258;PMS7003;37327;54.254;18.504;2022-11-30T22:40:46;23;22;16
51258;PMS7003;37327;54.254;18.504;2022-11-30T22:43:54;28;21;15
51258;PMS7003;37327;54.254;18.504;2022-11-30T22:47:02;25;23;15
51258;PMS7003;37327;54.254;18.504;2022-11-30T22:50:11;26;20;13
51258;PMS7003;37327;54.254;18.504;2022-11-30T22:53:43;28;22;16
51258;PMS7003;37327;54.254;18.504;2022-11-30T22:56:52;22;21;16
51258;PMS7003;37327;54.254;18.504;2022-11-30T22:59:59;26;23;15
51258;PMS7003;37327;54.254;18.504;2022-11-30T23:03:06;23;19;14
51258;PMS7003;37327;54.254;18.504;2022-11-30T23:06:13;30;25;16
51258;PMS7003;37327;54.254;18.504;2022-11-30T23:09:22;27;20;17
51258;PMS7003;37327;54.254;18.504;2022-11-30T23:12:55;33;25;19
51258;PMS7003;37327;54.254;18.504;2022-11-30T23:16:03;27;23;17
51258;PMS7003;37327;54.254;18.504;2022-11-30T23:19:10;26;24;16
51258;PMS7003;37327;54.254;18.504;2022-11-30T23:22:18;27;23;17
51258;PMS7003;37327;54.254;18.504;2022-11-30T23:25:25;34;27;18
51258;PMS7003;37327;54.254;18.504;2022-11-30T23:28:32;31;24;17
51258;PMS7003;37327;54.254;18.504;2022-11-30T23:32:05;30;23;14
51258;PMS7003;37327;54.254;18.504;2022-11-30T23:35:14;24;23;19
51258;PMS7003;37327;54.254;18.504;2022-11-30T23:38:21;26;24;18
51258;PMS7003;37327;54.254;18.504;2022-11-30T23:41:28;23;21;15
51258;PMS7003;37327;54.254;18.504;2022-11-30T23:44:35;29;25;19
51258;PMS7003;37327;54.254;18.504;2022-11-30T23:47:43;30;25;17
51258;PMS7003;37327;54.254;18.504;2022-11-30T23:51:16;28;24;14
51258;PMS7003;37327;54.254;18.504;2022-11-30T23:54:24;22;20;16
51258;PMS7003;37327;54.254;18.504;2022-11-30T23:57:31;17;16;9
